Ismay, Montana
Current Conditions -  °F | °C
As of 10:41 AM on Monday 22 Dec 2014 (Local Time) from KBHK Reporting Station
Light Snow Light Snow  
Wind Chill: 16°   Ceiling: 900
Heat Index: 30°   Visibility: 0.75mi
Dew Point: 29°   Wind: 24mph
Humidity: 96%   Direction: 320°NW
Pressure: 29.58"   Gusts: 39mph
Location:  46.5°N, 104.79°W
Report Text: KBHK 221741Z AUTO 32021G34KT 3/4SM -SN BR BKN009 OVC017 M01/M02 A2958 RMK AO2 PK WND 32034/1732 P0000 T10111017
Loading
Personal Weather Stations






























Interactive Weather Map New forecast layout! Learn more

10-Day Weather Forecast

Advertisements
Track Severe Weather on mobile